Time;durP1;ratioP1;P1;durP2;ratioP2;P2;SDS_P1;SDS_P2;PMS_P1;PMS_P2;Temp;Humidity;BMP_temperature;BMP_pressure;BME280_temperature;BME280_humidity;BME280_pressure;Samples;Min_cycle;Max_cycle;Signal;HPM_P1;HPM_P2
2022/05/11 00:01:54;;;;;;;3.33;3.03;;;12.30;99.90;;;;;;4980459;28;20031;-83
2022/05/11 00:04:23;;;;;;;3.65;2.95;;;12.20;99.90;;;;;;4956908;29;20030;-81
2022/05/11 00:06:49;;;;;;;3.65;2.97;;;12.10;99.90;;;;;;4962267;29;20039;-80
2022/05/11 00:09:17;;;;;;;4.32;3.70;;;12.00;99.90;;;;;;4962399;29;20023;-79
2022/05/11 00:11:47;;;;;;;4.38;2.72;;;12.00;99.90;;;;;;4959817;29;20038;-80
2022/05/11 00:14:13;;;;;;;4.63;2.97;;;;;;;;;;4961614;29;20015;-79
2022/05/11 00:16:40;;;;;;;7.28;3.60;;;12.00;99.90;;;;;;4960238;29;20019;-81
2022/05/11 00:19:05;;;;;;;4.32;2.90;;;11.90;99.90;;;;;;4957949;29;20027;-80
2022/05/11 00:21:31;;;;;;;6.95;3.58;;;11.90;99.90;;;;;;4956046;29;20030;-79
2022/05/11 00:23:57;;;;;;;3.85;3.17;;;11.80;99.90;;;;;;4955684;29;20400;-79
2022/05/11 00:26:23;;;;;;;3.40;3.08;;;11.80;99.90;;;;;;4956218;29;20407;-79
2022/05/11 00:28:48;;;;;;;7.47;3.13;;;11.70;99.90;;;;;;4956811;29;20071;-81
2022/05/11 00:31:16;;;;;;;4.90;3.88;;;11.60;99.90;;;;;;4957378;29;20114;-79
2022/05/11 00:33:42;;;;;;;5.25;3.63;;;11.60;99.90;;;;;;4957596;29;20416;-79
2022/05/11 00:36:11;;;;;;;3.72;2.53;;;11.50;99.90;;;;;;4958346;29;20027;-79
2022/05/11 00:38:37;;;;;;;5.47;4.32;;;11.40;99.90;;;;;;4957728;29;20069;-79
2022/05/11 00:41:02;;;;;;;4.43;3.47;;;11.40;99.90;;;;;;4956402;29;20109;-79
2022/05/11 00:43:30;;;;;;;6.25;3.70;;;11.40;99.90;;;;;;4955802;29;20519;-79
2022/05/11 00:46:11;;;;;;;5.15;2.92;;;11.40;99.90;;;;;;4956055;29;20021;-80
2022/05/11 00:51:21;;;;;;;5.15;3.45;;;11.40;99.90;;;;;;4957490;29;20050;-80
2022/05/11 00:53:53;;;;;;;3.65;3.17;;;11.40;99.90;;;;;;4957242;29;20027;-81
2022/05/11 00:56:19;;;;;;;4.75;3.55;;;11.40;99.90;;;;;;4957729;29;20361;-80
2022/05/11 00:59:14;;;;;;;5.55;3.83;;;11.40;99.90;;;;;;4956442;29;20451;-79
2022/05/11 01:01:41;;;;;;;5.18;3.55;;;11.30;99.90;;;;;;4955513;28;20090;-79
2022/05/11 01:04:15;;;;;;;3.25;2.90;;;11.30;99.90;;;;;;4953948;29;20031;-80
2022/05/11 01:06:42;;;;;;;4.30;3.78;;;11.30;99.90;;;;;;4953191;28;20404;-81
2022/05/11 01:09:08;;;;;;;5.05;3.08;;;11.40;99.90;;;;;;4954279;29;20514;-80
2022/05/11 01:11:50;;;;;;;4.38;3.50;;;11.30;99.90;;;;;;4955483;29;20038;-80
2022/05/11 01:14:19;;;;;;;5.50;3.13;;;11.20;99.90;;;;;;4954069;29;20074;-79
2022/05/11 01:16:46;;;;;;;4.90;3.60;;;11.20;99.90;;;;;;4953393;29;20535;-79
2022/05/11 01:19:33;;;;;;;4.82;3.30;;;11.10;99.90;;;;;;4953973;29;20034;-80
2022/05/11 01:22:36;;;;;;;3.28;2.60;;;11.00;99.90;;;;;;4949070;29;20035;-80
2022/05/11 01:25:05;;;;;;;5.55;3.25;;;11.00;99.90;;;;;;4949936;29;20567;-79
2022/05/11 01:27:58;;;;;;;3.30;3.00;;;10.90;99.90;;;;;;4953855;29;20065;-80
2022/05/11 01:30:24;;;;;;;8.40;3.85;;;10.90;99.90;;;;;;4955944;28;20027;-80
2022/05/11 01:32:54;;;;;;;5.20;3.78;;;10.80;99.90;;;;;;4954159;28;20122;-81
2022/05/11 01:35:44;;;;;;;4.57;3.85;;;10.80;99.90;;;;;;4954625;29;20027;-79
2022/05/11 01:38:20;;;;;;;6.57;3.65;;;10.70;99.90;;;;;;4954833;29;20113;-80
2022/05/11 01:40:46;;;;;;;4.68;3.03;;;10.70;99.90;;;;;;4955391;28;20035;-82
2022/05/11 01:43:18;;;;;;;3.53;3.08;;;10.70;99.90;;;;;;4955102;28;20122;-79
2022/05/11 01:45:44;;;;;;;4.45;3.70;;;10.60;99.90;;;;;;4954653;29;20051;-81
2022/05/11 01:48:10;;;;;;;5.18;3.60;;;10.60;99.90;;;;;;4953767;29;20484;-79
2022/05/11 01:50:36;;;;;;;2.80;2.45;;;10.60;99.90;;;;;;4954207;29;20020;-80
2022/05/11 01:53:03;;;;;;;4.15;3.10;;;10.50;99.90;;;;;;4953673;29;20031;-80
2022/05/11 01:55:28;;;;;;;4.22;3.13;;;10.50;99.90;;;;;;4954942;29;20038;-80
2022/05/11 01:57:54;;;;;;;4.53;3.22;;;10.50;99.90;;;;;;4953517;29;20031;-79
2022/05/11 02:00:20;;;;;;;3.53;3.03;;;10.40;99.90;;;;;;4955107;29;20098;-79
2022/05/11 02:02:45;;;;;;;3.72;3.13;;;10.40;99.90;;;;;;4953915;29;20280;-79
2022/05/11 02:07:56;;;;;;;5.03;2.72;;;10.40;99.90;;;;;;4955634;29;20043;-80
2022/05/11 02:10:28;;;;;;;4.38;3.28;;;10.30;99.90;;;;;;4955345;29;20031;-79
2022/05/11 02:12:57;;;;;;;3.75;3.03;;;;;;;;;;4955208;29;20476;-79
2022/05/11 02:15:24;;;;;;;4.97;3.17;;;10.30;99.90;;;;;;4955202;29;20059;-80
2022/05/11 02:17:50;;;;;;;4.72;2.95;;;;;;;;;;4955795;28;20182;-80
2022/05/11 02:20:18;;;;;;;7.00;3.67;;;10.20;99.90;;;;;;4957782;29;20130;-80
2022/05/11 02:22:44;;;;;;;4.30;3.60;;;10.20;99.90;;;;;;4958395;29;20066;-80
2022/05/11 02:25:11;;;;;;;8.38;3.88;;;10.20;99.90;;;;;;4958779;29;20027;-79
2022/05/11 02:27:37;;;;;;;4.22;3.30;;;10.20;99.90;;;;;;4957130;29;20039;-79
2022/05/11 02:30:04;;;;;;;4.18;3.10;;;10.20;99.90;;;;;;4958341;29;20027;-80
2022/05/11 02:32:29;;;;;;;4.10;3.00;;;10.20;99.90;;;;;;4958935;29;20027;-79
2022/05/11 02:35:13;;;;;;;6.97;4.40;;;10.10;99.90;;;;;;4958530;29;20031;-80
2022/05/11 02:37:45;;;;;;;8.73;4.93;;;10.10;99.90;;;;;;4958793;29;20039;-82
2022/05/11 02:40:14;;;;;;;7.05;3.72;;;10.20;99.90;;;;;;4958565;29;20043;-79
2022/05/11 02:42:40;;;;;;;5.50;3.83;;;10.20;99.90;;;;;;4957569;29;20046;-79
2022/05/11 02:45:06;;;;;;;4.05;3.28;;;10.20;99.90;;;;;;4957945;29;20030;-79
2022/05/11 02:47:32;;;;;;;6.70;3.85;;;10.20;99.90;;;;;;4958115;29;20043;-80
2022/05/11 02:49:58;;;;;;;4.85;4.00;;;10.10;99.90;;;;;;4959411;29;20154;-80
2022/05/11 02:52:24;;;;;;;5.50;4.03;;;10.10;99.90;;;;;;4959951;29;20031;-80
2022/05/11 02:54:49;;;;;;;5.15;3.58;;;10.10;99.90;;;;;;4959102;29;20027;-79
2022/05/11 02:57:16;;;;;;;6.22;3.72;;;10.20;99.90;;;;;;4958398;29;20118;-82
2022/05/11 02:59:44;;;;;;;9.65;4.30;;;10.10;99.90;;;;;;4959429;29;20027;-79
2022/05/11 03:02:10;;;;;;;4.00;3.22;;;10.10;99.90;;;;;;4959235;29;20027;-80
2022/05/11 03:04:35;;;;;;;5.25;3.90;;;10.00;99.90;;;;;;4957932;29;20023;-80
2022/05/11 03:07:01;;;;;;;4.95;3.63;;;10.00;99.90;;;;;;4959140;29;20035;-79
2022/05/11 03:09:27;;;;;;;4.50;2.72;;;;;;;;;;4958177;29;20027;-80
2022/05/11 03:11:53;;;;;;;5.72;4.03;;;9.90;99.90;;;;;;4959381;29;20583;-81
2022/05/11 03:14:19;;;;;;;4.75;3.30;;;9.90;99.90;;;;;;4958046;29;20076;-79
2022/05/11 03:16:45;;;;;;;5.05;3.03;;;9.90;99.90;;;;;;4958818;29;20035;-80
2022/05/11 03:19:10;;;;;;;4.50;3.88;;;9.70;99.90;;;;;;4958116;29;20023;-80
2022/05/11 03:21:36;;;;;;;4.30;3.67;;;9.80;99.90;;;;;;4958913;28;20070;-80
2022/05/11 03:24:03;;;;;;;4.07;3.22;;;9.70;99.90;;;;;;4958113;29;20495;-79
2022/05/11 03:26:29;;;;;;;4.63;3.30;;;9.70;99.90;;;;;;4957584;29;20027;-82
2022/05/11 03:28:56;;;;;;;5.65;4.05;;;9.70;99.90;;;;;;4959063;28;20027;-82
2022/05/11 03:31:22;;;;;;;5.78;3.30;;;9.80;99.90;;;;;;4957669;29;20038;-80
2022/05/11 03:36:32;;;;;;;5.70;4.00;;;9.80;99.90;;;;;;4958414;29;20132;-80
2022/05/11 03:38:57;;;;;;;5.18;3.78;;;9.80;99.90;;;;;;4956655;29;20518;-79
2022/05/11 03:41:24;;;;;;;6.85;4.82;;;9.90;99.90;;;;;;4958646;29;20086;-80
2022/05/11 03:43:49;;;;;;;4.88;4.25;;;9.90;99.90;;;;;;4956184;29;20023;-80
2022/05/11 03:46:15;;;;;;;5.30;3.97;;;10.00;99.90;;;;;;4957036;29;20034;-79
2022/05/11 03:48:41;;;;;;;4.28;3.25;;;10.00;99.90;;;;;;4956987;29;20027;-80
2022/05/11 03:51:07;;;;;;;5.80;3.67;;;10.00;99.90;;;;;;4957278;29;20030;-79
2022/05/11 03:53:34;;;;;;;5.97;3.67;;;10.00;99.90;;;;;;4956946;29;20031;-81
2022/05/11 03:56:00;;;;;;;4.40;3.97;;;9.90;99.90;;;;;;4958353;29;20027;-79
2022/05/11 03:58:26;;;;;;;8.55;4.50;;;9.80;99.90;;;;;;4956245;29;20035;-79
2022/05/11 04:00:52;;;;;;;4.00;3.47;;;9.80;99.90;;;;;;4956688;29;20031;-80
2022/05/11 04:03:18;;;;;;;3.17;2.88;;;9.90;99.90;;;;;;4956701;29;20030;-79
2022/05/11 04:05:43;;;;;;;3.95;3.20;;;9.90;99.90;;;;;;4956780;29;20024;-79
2022/05/11 04:08:09;;;;;;;4.32;3.20;;;9.80;99.90;;;;;;4957103;29;20314;-79
2022/05/11 04:10:35;;;;;;;4.13;3.28;;;9.80;99.90;;;;;;4957405;29;20444;-82
2022/05/11 04:13:02;;;;;;;5.40;2.92;;;9.80;99.90;;;;;;4957744;29;20051;-81
2022/05/11 04:15:28;;;;;;;3.83;2.90;;;9.80;99.90;;;;;;4957288;28;20031;-80
2022/05/11 04:17:54;;;;;;;5.07;3.30;;;9.80;99.90;;;;;;4956803;29;20110;-80
2022/05/11 04:20:20;;;;;;;4.35;3.00;;;9.80;99.90;;;;;;4956540;28;20046;-79
2022/05/11 04:22:47;;;;;;;3.65;3.13;;;9.80;99.90;;;;;;4956845;29;20031;-79
2022/05/11 04:25:15;;;;;;;3.35;2.78;;;9.90;99.90;;;;;;4955904;29;20468;-79
2022/05/11 04:27:45;;;;;;;4.43;3.00;;;10.00;99.90;;;;;;4957324;29;20551;-79
2022/05/11 04:30:12;;;;;;;5.07;2.72;;;10.00;99.90;;;;;;4957148;29;20027;-79
2022/05/11 04:32:38;;;;;;;4.93;3.33;;;10.10;99.90;;;;;;4955568;29;20439;-80
2022/05/11 04:35:04;;;;;;;5.70;3.22;;;10.00;99.90;;;;;;4956404;29;20023;-80
2022/05/11 04:37:30;;;;;;;4.03;3.42;;;10.10;99.90;;;;;;4954165;29;20043;-79
2022/05/11 04:39:56;;;;;;;3.53;3.00;;;10.10;99.90;;;;;;4954707;28;20031;-79
2022/05/11 04:42:22;;;;;;;4.10;3.03;;;10.20;99.90;;;;;;4956185;28;20035;-80
2022/05/11 04:44:47;;;;;;;2.75;2.45;;;10.30;99.90;;;;;;4955717;29;20476;-80
2022/05/11 04:47:17;;;;;;;5.57;4.43;;;10.30;99.90;;;;;;4955921;29;20059;-80
2022/05/11 04:49:43;;;;;;;8.07;3.65;;;10.40;99.90;;;;;;4954060;29;20031;-79
2022/05/11 04:52:15;;;;;;;4.93;3.72;;;10.60;99.90;;;;;;4955499;29;20110;-79
2022/05/11 04:54:49;;;;;;;5.07;3.33;;;10.70;99.90;;;;;;4954002;29;20031;-80
2022/05/11 04:57:17;;;;;;;5.45;3.72;;;10.70;99.90;;;;;;4955201;29;20115;-79
2022/05/11 04:59:43;;;;;;;5.63;3.53;;;10.80;99.90;;;;;;4953710;29;20027;-80
2022/05/11 05:02:15;;;;;;;5.00;3.80;;;11.00;99.90;;;;;;4954790;28;20086;-80
2022/05/11 05:04:41;;;;;;;5.28;3.60;;;11.20;99.90;;;;;;4955442;29;20027;-79
2022/05/11 05:07:07;;;;;;;5.05;3.38;;;11.30;99.90;;;;;;4953670;29;20054;-81
2022/05/11 05:09:32;;;;;;;3.70;3.30;;;11.40;99.90;;;;;;4953356;29;20023;-80
2022/05/11 05:11:58;;;;;;;3.67;3.10;;;11.60;99.90;;;;;;4958907;28;20062;-80
2022/05/11 05:14:24;;;;;;;3.58;2.97;;;11.60;99.90;;;;;;4952341;29;20039;-79
2022/05/11 05:16:49;;;;;;;3.33;2.58;;;11.70;99.90;;;;;;4953594;29;20027;-79
2022/05/11 05:19:16;;;;;;;4.53;3.08;;;11.70;99.90;;;;;;4951967;29;20020;-80
2022/05/11 05:21:41;;;;;;;4.72;3.53;;;11.80;99.90;;;;;;4955344;29;20476;-80
2022/05/11 05:24:07;;;;;;;4.28;3.10;;;11.90;99.90;;;;;;4953029;29;20034;-79
2022/05/11 05:26:33;;;;;;;3.42;2.97;;;12.20;99.90;;;;;;4951857;29;20488;-79
2022/05/11 05:31:44;;;;;;;3.03;2.63;;;12.50;99.90;;;;;;4956712;29;20519;-81
2022/05/11 05:34:09;;;;;;;6.25;4.38;;;12.60;99.90;;;;;;4951943;29;20063;-79
2022/05/11 05:36:36;;;;;;;5.38;2.95;;;12.70;99.90;;;;;;4956645;28;20640;-79
2022/05/11 05:39:03;;;;;;;4.53;2.75;;;12.90;99.90;;;;;;4950572;28;20047;-79
2022/05/11 05:41:29;;;;;;;4.90;4.03;;;13.00;99.90;;;;;;4938454;29;20023;-79
2022/05/11 05:43:55;;;;;;;3.70;2.63;;;13.20;99.90;;;;;;4943481;29;20536;-84
2022/05/11 05:46:22;;;;;;;3.92;3.63;;;13.30;99.90;;;;;;4944832;29;20074;-81
2022/05/11 05:48:48;;;;;;;3.72;3.13;;;13.50;99.90;;;;;;4947374;29;20028;-80
2022/05/11 05:51:16;;;;;;;4.32;3.30;;;13.60;99.90;;;;;;4942787;28;20034;-85
2022/05/11 05:53:42;;;;;;;5.38;4.05;;;13.80;99.90;;;;;;4947899;28;20031;-84
2022/05/11 05:56:13;;;;;;;4.00;3.35;;;14.00;99.90;;;;;;4940496;29;20053;-84
2022/05/11 05:58:39;;;;;;;4.05;3.65;;;14.20;99.90;;;;;;4939860;29;20020;-82
2022/05/11 06:01:06;;;;;;;5.28;3.85;;;14.30;99.90;;;;;;4941476;29;20136;-82
2022/05/11 06:03:34;;;;;;;4.13;3.25;;;14.50;99.90;;;;;;4939502;29;20020;-85
2022/05/11 06:06:00;;;;;;;13.25;4.20;;;14.70;99.90;;;;;;4938886;29;20106;-81
2022/05/11 06:08:25;;;;;;;4.50;3.08;;;14.90;99.90;;;;;;4940166;29;20134;-85
2022/05/11 06:10:55;;;;;;;4.63;4.05;;;15.10;99.90;;;;;;4941910;29;20024;-82
2022/05/11 06:13:22;;;;;;;4.78;3.38;;;15.30;99.90;;;;;;4941236;29;20027;-82
2022/05/11 06:15:52;;;;;;;3.75;2.92;;;15.60;99.90;;;;;;4939037;29;20027;-81
2022/05/11 06:18:19;;;;;;;3.03;2.70;;;15.60;99.90;;;;;;4947663;29;20091;-80
2022/05/11 06:20:44;;;;;;;3.97;2.47;;;15.90;99.90;;;;;;4943450;28;20138;-80
2022/05/11 06:23:10;;;;;;;3.35;2.95;;;16.40;99.90;;;;;;4945486;29;20168;-81
2022/05/11 06:25:38;;;;;;;2.80;2.33;;;17.10;99.90;;;;;;4942679;29;20038;-82
2022/05/11 06:28:06;;;;;;;2.70;2.50;;;18.20;99.90;;;;;;4938554;29;20031;-81
2022/05/11 06:30:32;;;;;;;3.17;2.42;;;18.20;99.90;;;;;;4941887;29;20027;-83
2022/05/11 06:33:00;;;;;;;4.07;2.95;;;18.40;99.90;;;;;;4935612;29;20019;-82
2022/05/11 06:35:26;;;;;;;2.60;2.30;;;18.40;99.90;;;;;;4942858;29;20019;-81
2022/05/11 06:37:54;;;;;;;3.47;2.33;;;18.20;99.90;;;;;;4937175;29;20120;-81
2022/05/11 06:40:20;;;;;;;2.15;1.95;;;18.20;99.90;;;;;;4941475;29;20035;-80
2022/05/11 06:42:48;;;;;;;3.95;2.47;;;18.10;99.90;;;;;;4938640;29;20457;-83
2022/05/11 06:45:14;;;;;;;3.30;1.83;;;18.20;99.90;;;;;;4939996;29;20364;-83
2022/05/11 06:47:40;;;;;;;2.50;2.30;;;18.30;99.90;;;;;;4939190;29;20115;-85
2022/05/11 06:50:06;;;;;;;2.65;2.13;;;18.50;99.90;;;;;;4939066;29;20489;-83
2022/05/11 06:52:32;;;;;;;2.80;2.22;;;18.60;99.90;;;;;;4928786;29;20043;-84
2022/05/11 07:00:30;;;;;;;6.40;2.33;;;20.90;99.90;;;;;;4931692;29;20052;-82
2022/05/11 07:02:56;;;;;;;3.47;1.90;;;22.30;99.90;;;;;;4931611;29;20272;-82
2022/05/11 07:05:22;;;;;;;6.75;1.77;;;22.90;99.90;;;;;;4940751;29;20342;-80
2022/05/11 07:07:47;;;;;;;4.25;1.98;;;23.60;99.90;;;;;;4933851;29;20484;-81
2022/05/11 07:10:13;;;;;;;2.10;1.98;;;23.60;99.90;;;;;;4934000;29;20571;-82
2022/05/11 07:12:45;;;;;;;3.20;1.90;;;23.60;99.90;;;;;;4937312;29;20520;-82
2022/05/11 07:15:12;;;;;;;5.65;1.80;;;23.60;93.50;;;;;;4941210;29;20024;-82
2022/05/11 07:17:59;;;;;;;1.70;1.60;;;23.60;93.80;;;;;;4953613;29;20170;-83
2022/05/11 07:20:34;;;;;;;2.53;1.67;;;24.10;99.90;;;;;;4952552;29;20384;-81
2022/05/11 07:23:01;;;;;;;2.05;1.95;;;24.70;89.20;;;;;;4952554;29;20062;-84
2022/05/11 07:25:28;;;;;;;2.72;1.70;;;24.50;89.70;;;;;;4951515;29;20059;-84
2022/05/11 07:27:57;;;;;;;1.52;1.40;;;24.70;91.20;;;;;;4952354;29;20031;-81
2022/05/11 07:30:30;;;;;;;2.92;1.50;;;24.90;87.90;;;;;;4952371;29;20085;-81
2022/05/11 07:32:56;;;;;;;2.47;2.28;;;25.20;76.60;;;;;;4954286;29;20130;-81
2022/05/11 07:35:23;;;;;;;2.35;2.15;;;24.70;79.60;;;;;;4952446;29;20054;-81
2022/05/11 07:37:49;;;;;;;2.90;1.35;;;24.90;80.00;;;;;;4951102;29;20043;-82
2022/05/11 07:40:21;;;;;;;1.70;1.60;;;25.20;77.30;;;;;;4951045;29;20070;-81
2022/05/11 07:42:46;;;;;;;5.72;2.10;;;25.50;77.30;;;;;;4951386;29;20062;-81
2022/05/11 07:45:13;;;;;;;1.85;1.40;;;25.70;68.50;;;;;;4952453;29;20058;-82
2022/05/11 07:47:39;;;;;;;4.97;1.70;;;25.60;69.50;;;;;;4954337;28;20043;-79
2022/05/11 07:50:06;;;;;;;2.83;1.70;;;25.70;69.00;;;;;;4952986;29;20031;-80
2022/05/11 07:52:32;;;;;;;1.30;1.30;;;26.30;68.10;;;;;;4954227;29;20049;-80
2022/05/11 07:54:57;;;;;;;4.55;1.35;;;26.10;68.60;;;;;;4952972;29;20459;-81
2022/05/11 08:00:09;;;;;;;1.45;1.35;;;26.60;66.20;;;;;;4954081;29;20030;-80
2022/05/11 08:02:36;;;;;;;2.72;1.90;;;25.90;66.80;;;;;;4952903;29;20028;-80
2022/05/11 08:05:22;;;;;;;2.45;1.85;;;26.40;67.20;;;;;;4952806;29;20170;-81
2022/05/11 08:07:56;;;;;;;4.50;1.70;;;26.40;66.70;;;;;;4952069;29;20503;-80
2022/05/11 08:10:29;;;;;;;2.15;2.05;;;26.20;68.70;;;;;;4952895;29;20027;-80
2022/05/11 08:12:55;;;;;;;2.42;2.22;;;26.10;67.50;;;;;;4952857;29;20035;-80
2022/05/11 08:15:23;;;;;;;2.20;1.67;;;25.80;69.00;;;;;;4944583;28;20107;-82
2022/05/11 08:17:50;;;;;;;3.80;1.83;;;25.70;73.20;;;;;;4933415;29;20039;-82
2022/05/11 08:20:40;;;;;;;4.70;1.70;;;25.40;73.90;;;;;;4933052;29;20051;-81
2022/05/11 08:23:07;;;;;;;2.75;2.00;;;25.80;80.50;;;;;;4934809;29;20036;-80
2022/05/11 08:25:35;;;;;;;6.05;2.65;;;26.00;69.70;;;;;;4933663;29;20134;-80
2022/05/11 08:28:07;;;;;;;1.70;1.60;;;25.40;76.60;;;;;;4934695;29;20046;-80
2022/05/11 08:33:23;;;;;;;3.47;2.10;;;25.50;77.40;;;;;;4933639;29;20042;-82
2022/05/11 08:35:52;;;;;;;1.80;1.70;;;25.90;72.70;;;;;;4932158;29;20110;-83
2022/05/11 08:38:22;;;;;;;1.90;1.67;;;25.90;77.00;;;;;;4932272;29;20484;-80
2022/05/11 08:40:51;;;;;;;2.92;1.90;;;;;;;;;;4933268;29;20031;-83
2022/05/11 08:43:19;;;;;;;2.00;1.83;;;26.10;73.50;;;;;;4934697;29;20512;-83
2022/05/11 08:45:54;;;;;;;2.10;1.90;;;25.40;75.30;;;;;;4933704;29;20028;-84
2022/05/11 08:48:47;;;;;;;2.05;1.85;;;25.00;82.10;;;;;;4933567;29;20048;-84
2022/05/11 08:51:29;;;;;;;2.42;1.90;;;24.70;92.80;;;;;;4929888;29;20036;-82
2022/05/11 08:54:07;;;;;;;2.17;1.98;;;25.00;92.20;;;;;;4934079;29;20054;-84
2022/05/11 08:56:34;;;;;;;2.53;2.33;;;24.70;90.90;;;;;;4935490;29;20039;-82
2022/05/11 08:59:00;;;;;;;3.22;2.28;;;25.00;96.50;;;;;;4933666;29;20458;-82
2022/05/11 09:01:36;;;;;;;1.83;1.73;;;24.90;99.90;;;;;;4933227;29;20027;-82
2022/05/11 09:04:08;;;;;;;4.55;2.35;;;24.90;90.90;;;;;;4933597;29;20032;-83
2022/05/11 09:06:37;;;;;;;2.30;1.95;;;;;;;;;;4934733;29;20024;-83
2022/05/11 09:09:03;;;;;;;3.67;1.77;;;24.50;90.60;;;;;;4935281;29;20488;-83
2022/05/11 09:11:32;;;;;;;3.28;1.90;;;24.60;95.10;;;;;;4933402;29;20028;-84
2022/05/11 09:13:59;;;;;;;2.15;1.80;;;24.90;95.20;;;;;;4934563;29;20083;-85
2022/05/11 09:16:28;;;;;;;3.00;2.13;;;24.90;94.80;;;;;;4934528;29;20119;-82
2022/05/11 09:18:56;;;;;;;4.45;2.45;;;24.70;99.90;;;;;;4932676;29;20091;-82
2022/05/11 09:21:29;;;;;;;3.22;2.35;;;24.40;94.90;;;;;;4933662;29;20708;-89
2022/05/11 09:24:21;;;;;;;2.53;1.88;;;24.20;96.20;;;;;;4934316;29;20036;-87
2022/05/11 09:27:04;;;;;;;12.25;2.65;;;24.30;98.50;;;;;;4935233;29;20062;-83
2022/05/11 09:29:41;;;;;;;4.07;2.00;;;24.50;90.30;;;;;;4935508;29;20106;-84
2022/05/11 09:32:29;;;;;;;2.30;2.05;;;24.60;93.90;;;;;;4934219;29;20027;-88
2022/05/11 09:34:58;;;;;;;4.13;1.95;;;24.40;97.40;;;;;;4938181;29;20125;-84
2022/05/11 09:37:34;;;;;;;4.82;1.67;;;24.80;97.90;;;;;;4951048;29;20195;-81
2022/05/11 09:40:12;;;;;;;3.58;1.65;;;25.00;99.90;;;;;;4951724;29;20475;-81
2022/05/11 09:43:15;;;;;;;4.10;2.33;;;25.60;74.60;;;;;;4951601;29;20054;-78
2022/05/11 09:45:48;;;;;;;1.30;1.20;;;25.60;72.70;;;;;;4950028;29;20055;-78
2022/05/11 09:48:19;;;;;;;2.10;2.00;;;26.20;66.00;;;;;;4953779;29;20145;-76
2022/05/11 09:50:47;;;;;;;2.53;1.60;;;26.30;65.80;;;;;;4949854;29;20114;-73
2022/05/11 09:53:36;;;;;;;2.60;1.92;;;26.30;65.30;;;;;;4950044;29;20586;-76
2022/05/11 09:56:33;;;;;;;2.63;1.40;;;26.50;73.60;;;;;;4949925;29;20031;-80
2022/05/11 09:59:38;;;;;;;2.20;2.00;;;26.30;65.40;;;;;;4951515;28;20031;-78
2022/05/11 10:02:12;;;;;;;1.73;1.63;;;26.80;65.40;;;;;;4928920;29;20178;-78
2022/05/11 10:04:43;;;;;;;2.70;2.13;;;26.90;67.10;;;;;;4929017;29;20031;-78
2022/05/11 10:07:14;;;;;;;2.22;2.05;;;26.60;67.30;;;;;;4941477;29;20063;-78
2022/05/11 10:09:44;;;;;;;1.70;1.60;;;26.70;65.40;;;;;;4949548;29;20023;-76
2022/05/11 10:12:22;;;;;;;1.63;1.52;;;26.90;66.00;;;;;;4949766;29;20035;-77
2022/05/11 10:23:24;;;;;;;3.65;2.05;;;27.00;60.90;;;;;;4966009;28;20462;-80
2022/05/11 10:25:58;;;;;;;1.77;1.67;;;27.10;63.30;;;;;;4965655;28;20772;-78
2022/05/11 10:28:37;;;;;;;1.67;1.48;;;26.60;62.20;;;;;;4966953;28;20041;-81
2022/05/11 10:31:02;;;;;;;1.75;1.50;;;26.10;65.00;;;;;;4967751;28;20387;-80
2022/05/11 10:33:49;;;;;;;3.22;1.73;;;26.20;64.90;;;;;;4959002;28;20023;-80
2022/05/11 10:36:39;;;;;;;5.93;5.38;;;26.70;63.50;;;;;;4948206;29;20431;-80
2022/05/11 10:39:40;;;;;;;2.38;2.17;;;27.00;63.40;;;;;;4949319;28;20071;-81
2022/05/11 10:42:50;;;;;;;8.38;7.45;;;26.70;62.60;;;;;;4949124;28;20070;-81
2022/05/11 10:45:48;;;;;;;3.03;1.67;;;27.00;64.30;;;;;;4924823;29;20080;-80
2022/05/11 10:48:38;;;;;;;3.40;1.53;;;26.80;62.70;;;;;;4950154;28;20438;-76
2022/05/11 10:51:13;;;;;;;2.47;1.42;;;26.70;63.80;;;;;;4933874;29;20154;-78
2022/05/11 10:54:05;;;;;;;1.45;1.35;;;26.80;63.60;;;;;;4932565;29;20032;-82
2022/05/11 10:56:55;;;;;;;2.50;1.75;;;26.40;62.10;;;;;;4933380;29;20024;-80
2022/05/11 10:59:26;;;;;;;1.50;1.40;;;27.10;61.50;;;;;;4932373;29;20027;-81
2022/05/11 11:02:13;;;;;;;3.72;1.42;;;26.30;60.20;;;;;;4931951;29;20501;-80
2022/05/11 11:04:57;;;;;;;1.65;1.25;;;26.50;60.90;;;;;;4921567;29;20056;-83
2022/05/11 11:07:42;;;;;;;1.70;1.60;;;26.70;61.10;;;;;;4930925;29;20099;-79
2022/05/11 11:10:33;;;;;;;3.13;1.60;;;26.80;61.20;;;;;;4948451;28;20049;-81
2022/05/11 11:13:28;;;;;;;2.13;2.03;;;27.10;60.00;;;;;;4969271;28;20035;-88
2022/05/11 11:15:57;;;;;;;1.17;1.17;;;27.10;59.60;;;;;;4969817;28;20174;-81
2022/05/11 11:18:34;;;;;;;2.20;1.25;;;27.40;59.00;;;;;;4969143;28;20035;-84
2022/05/11 11:21:02;;;;;;;1.98;1.80;;;28.00;59.00;;;;;;4968599;28;20033;-83
2022/05/11 11:23:36;;;;;;;2.28;1.83;;;28.10;61.10;;;;;;4970243;28;20030;-84
2022/05/11 11:26:12;;;;;;;2.55;1.40;;;28.80;59.50;;;;;;4969382;28;20154;-78
2022/05/11 11:28:41;;;;;;;2.88;1.52;;;29.10;56.30;;;;;;4969965;28;20521;-77
2022/05/11 11:31:10;;;;;;;1.40;1.17;;;29.00;56.90;;;;;;4970312;28;20162;-77
2022/05/11 11:33:38;;;;;;;;;;;29.80;55.20;;;;;;4969927;28;20490;-79
2022/05/11 11:36:18;;;;;;;2.97;1.65;;;29.80;56.90;;;;;;4962251;28;20217;-77
2022/05/11 11:38:43;;;;;;;1.42;1.33;;;29.70;55.00;;;;;;4979399;28;20118;-77
2022/05/11 11:41:10;;;;;;;1.25;1.15;;;29.30;55.40;;;;;;4971128;28;20603;-80
2022/05/11 11:43:45;;;;;;;1.85;1.40;;;29.10;56.50;;;;;;4967407;28;20128;-76
2022/05/11 11:46:28;;;;;;;1.70;1.08;;;29.20;55.80;;;;;;4968263;28;20035;-76
2022/05/11 11:49:02;;;;;;;1.23;1.23;;;29.20;58.60;;;;;;4969215;28;20039;-76
2022/05/11 11:51:53;;;;;;;2.05;1.63;;;30.10;55.40;;;;;;4953189;28;20441;-75
2022/05/11 11:54:37;;;;;;;1.58;1.15;;;29.50;56.70;;;;;;4928979;29;20385;-75
2022/05/11 11:57:23;;;;;;;1.45;1.35;;;28.90;56.20;;;;;;4945393;28;20070;-76
2022/05/11 11:59:56;;;;;;;2.13;1.70;;;28.70;56.90;;;;;;4916086;29;20055;-75
2022/05/11 12:02:28;;;;;;;1.42;1.33;;;28.80;56.50;;;;;;4930372;29;20027;-74
2022/05/11 12:05:06;;;;;;;1.38;1.27;;;29.20;57.20;;;;;;4930763;29;20110;-76
2022/05/11 12:16:46;;;;;;;1.23;1.13;;;31.00;53.40;;;;;;4969674;28;20038;-79
2022/05/11 12:19:14;;;;;;;1.25;1.10;;;30.50;54.10;;;;;;4968624;28;20530;-77
2022/05/11 12:21:52;;;;;;;1.58;1.48;;;30.30;54.20;;;;;;4969232;28;20027;-78
2022/05/11 12:24:32;;;;;;;1.90;1.77;;;30.50;53.00;;;;;;4968962;28;20046;-81
2022/05/11 12:27:01;;;;;;;1.30;1.20;;;30.60;54.50;;;;;;4967748;28;20042;-79
2022/05/11 12:32:22;;;;;;;1.42;1.33;;;29.60;53.90;;;;;;4968145;28;20138;-78
2022/05/11 12:34:48;;;;;;;2.17;1.40;;;29.00;55.20;;;;;;4968679;28;20106;-76
2022/05/11 12:37:26;;;;;;;1.83;1.67;;;28.70;54.90;;;;;;4968350;28;20511;-75
2022/05/11 12:40:01;;;;;;;2.95;1.60;;;28.70;55.90;;;;;;4968776;28;20390;-80
2022/05/11 12:42:37;;;;;;;13.00;2.05;;;29.20;56.30;;;;;;4966857;28;20043;-85
2022/05/11 12:45:04;;;;;;;1.60;1.50;;;30.20;53.70;;;;;;4967247;28;20426;-83
2022/05/11 12:47:30;;;;;;;2.25;1.27;;;30.60;52.90;;;;;;4968674;28;20058;-79
2022/05/11 12:49:56;;;;;;;1.42;1.33;;;31.60;51.00;;;;;;4967774;28;20571;-78
2022/05/11 12:52:26;;;;;;;1.63;1.05;;;31.50;51.60;;;;;;4967774;28;20114;-80
2022/05/11 12:55:02;;;;;;;1.75;0.93;;;30.70;52.30;;;;;;4967102;28;20439;-76
2022/05/11 12:57:44;;;;;;;1.27;1.23;;;30.60;51.00;;;;;;4968150;28;20029;-80
2022/05/11 13:00:19;;;;;;;1.42;1.30;;;30.50;51.50;;;;;;4966998;28;20029;-82
2022/05/11 13:02:45;;;;;;;1.08;1.02;;;31.40;53.30;;;;;;4967085;28;20108;-78
2022/05/11 13:05:16;;;;;;;5.35;1.65;;;30.80;52.80;;;;;;4966519;28;20027;-77
2022/05/11 13:07:54;;;;;;;13.02;2.30;;;30.40;53.50;;;;;;4967985;28;20146;-78
2022/05/11 13:10:40;;;;;;;2.63;1.08;;;30.50;51.90;;;;;;4956023;28;20023;-80
2022/05/11 13:13:15;;;;;;;0.80;0.80;;;30.20;55.00;;;;;;4946767;29;20035;-80
2022/05/11 13:15:46;;;;;;;1.23;0.80;;;30.40;53.00;;;;;;4947457;29;20414;-80
2022/05/11 13:18:27;;;;;;;2.28;1.33;;;29.70;52.40;;;;;;4948690;29;20050;-79
2022/05/11 13:20:56;;;;;;;1.60;1.10;;;29.70;52.90;;;;;;4946977;29;20070;-77
2022/05/11 13:23:28;;;;;;;1.30;1.20;;;30.20;54.40;;;;;;4948040;29;20025;-77
2022/05/11 13:25:57;;;;;;;1.30;0.80;;;31.80;52.70;;;;;;4947872;29;20093;-74
2022/05/11 13:28:30;;;;;;;3.28;1.08;;;32.50;48.30;;;;;;4948031;29;20072;-77
2022/05/11 13:30:59;;;;;;;1.08;0.82;;;32.50;49.00;;;;;;4948124;29;20582;-77
2022/05/11 13:33:34;;;;;;;2.17;0.88;;;31.70;49.10;;;;;;4948117;29;20332;-78
2022/05/11 13:36:17;;;;;;;1.02;1.02;;;32.50;53.80;;;;;;4949715;29;20484;-77
2022/05/11 13:38:52;;;;;;;1.83;0.60;;;32.10;49.20;;;;;;4948839;29;20771;-79
2022/05/11 13:41:28;;;;;;;0.60;0.60;;;32.10;48.40;;;;;;4947027;29;20365;-78
2022/05/11 13:44:20;;;;;;;1.92;0.85;;;31.10;49.40;;;;;;4947692;29;20039;-77
2022/05/11 13:49:32;;;;;;;1.10;1.00;;;31.30;50.20;;;;;;4948149;29;20074;-79
2022/05/11 13:52:01;;;;;;;1.10;1.02;;;31.30;50.70;;;;;;4950963;28;20677;-83
2022/05/11 13:54:42;;;;;;;1.30;1.20;;;30.50;48.90;;;;;;4964177;28;20061;-77
2022/05/11 13:57:23;;;;;;;1.02;0.90;;;30.40;49.00;;;;;;4965501;28;20484;-79